Time;durP1;ratioP1;P1;durP2;ratioP2;P2;SDS_P1;SDS_P2;PMS_P1;PMS_P2;Temp;Humidity;BMP_temperature;BMP_pressure;BME280_temperature;BME280_humidity;BME280_pressure;Samples;Min_cycle;Max_cycle;Signal;HPM_P1;HPM_P2
2023/04/20 00:01:06;;;;;;;14.93;13.53;;;;;;;9.64;76.42;92470.06;5113038;28;20242;-68
2023/04/20 00:03:32;;;;;;;15.07;13.77;;;;;;;9.60;76.04;92458.66;5110725;28;20218;-68
2023/04/20 00:06:00;;;;;;;16.67;15.17;;;;;;;9.68;76.55;92471.09;5111302;28;20231;-68
2023/04/20 00:08:26;;;;;;;14.43;13.00;;;;;;;9.73;76.00;92463.19;5112341;28;20196;-68
2023/04/20 00:10:52;;;;;;;14.40;13.03;;;;;;;9.58;76.37;92455.53;5110952;28;20216;-68
2023/04/20 00:13:17;;;;;;;16.33;15.03;;;;;;;9.60;76.56;92453.44;5111876;28;20590;-68
2023/04/20 00:15:43;;;;;;;15.97;14.70;;;;;;;9.65;77.28;92456.75;5110583;28;20220;-68
2023/04/20 00:18:08;;;;;;;15.27;13.97;;;;;;;9.49;77.04;92444.16;5111495;28;20179;-68
2023/04/20 00:20:34;;;;;;;14.93;13.50;;;;;;;9.42;78.10;92451.50;5111310;28;20240;-68
2023/04/20 00:22:59;;;;;;;15.47;14.07;;;;;;;9.47;77.72;92447.06;5111037;28;20192;-68
2023/04/20 00:25:25;;;;;;;15.70;14.40;;;;;;;9.57;76.22;92448.78;5110459;28;20265;-68
2023/04/20 00:27:50;;;;;;;15.47;14.20;;;;;;;9.50;76.70;92435.28;5113249;28;20235;-67
2023/04/20 00:30:16;;;;;;;14.43;13.23;;;;;;;9.51;76.39;92442.03;5111737;28;20228;-69
2023/04/20 00:32:41;;;;;;;14.87;13.57;;;;;;;9.47;76.19;92439.25;5111974;28;20198;-68
2023/04/20 00:35:07;;;;;;;15.13;14.00;;;;;;;9.52;76.89;92441.00;5109808;28;20245;-68
2023/04/20 00:37:32;;;;;;;16.03;14.80;;;;;;;9.50;76.84;92440.50;5113847;28;20191;-68
2023/04/20 00:39:58;;;;;;;14.27;13.17;;;;;;;9.46;76.86;92439.50;5111455;28;20604;-69
2023/04/20 00:42:23;;;;;;;14.13;13.03;;;;;;;9.33;77.64;92432.34;5110865;28;20206;-68
2023/04/20 00:44:49;;;;;;;13.47;12.47;;;;;;;9.36;77.66;92429.16;5110574;28;20227;-68
2023/04/20 00:47:15;;;;;;;14.53;13.43;;;;;;;9.32;77.80;92428.19;5113377;28;20206;-68
2023/04/20 00:49:40;;;;;;;14.83;13.53;;;;;;;9.26;78.44;92421.47;5109397;28;21938;-68
2023/04/20 00:52:07;;;;;;;13.80;12.60;;;;;;;9.08;79.37;92415.09;5110808;28;20196;-68
2023/04/20 00:54:33;;;;;;;14.37;13.47;;;;;;;9.16;79.62;92431.97;5110813;28;20199;-75
2023/04/20 00:56:59;;;;;;;14.53;13.33;;;;;;;9.10;80.14;92425.25;5111505;28;20181;-69
2023/04/20 00:59:24;;;;;;;14.73;13.47;;;;;;;9.07;80.67;92423.97;5110330;28;20187;-69
2023/04/20 01:01:50;;;;;;;14.43;13.33;;;;;;;9.01;81.01;92427.66;5111337;28;20228;-69
2023/04/20 01:04:16;;;;;;;14.47;13.33;;;;;;;9.05;81.00;92426.06;5111760;28;20215;-69
2023/04/20 01:06:41;;;;;;;14.37;13.43;;;;;;;8.97;81.88;92412.84;5109365;28;20228;-69
2023/04/20 01:09:07;;;;;;;13.60;12.50;;;;;;;9.04;81.97;92426.34;5110634;28;20210;-69
2023/04/20 01:11:32;;;;;;;14.30;13.30;;;;;;;8.97;82.89;92426.66;5110799;28;20224;-69
2023/04/20 01:13:58;;;;;;;14.10;13.00;;;;;;;9.03;83.56;92429.97;5111380;28;20164;-69
2023/04/20 01:16:23;;;;;;;14.53;13.20;;;;;;;8.86;83.74;92411.38;5110590;28;20295;-69
2023/04/20 01:18:49;;;;;;;14.57;13.37;;;;;;;8.85;84.77;92421.03;5111282;28;20192;-70
2023/04/20 01:21:18;;;;;;;15.40;14.00;;;;;;;8.92;85.14;92433.75;5111300;28;20296;-69
2023/04/20 01:23:44;;;;;;;14.53;13.33;;;;;;;8.86;85.68;92430.38;5112010;28;20192;-69
2023/04/20 01:26:12;;;;;;;14.40;13.23;;;;;;;9.12;84.57;92430.97;5111265;28;20219;-69
2023/04/20 01:28:38;;;;;;;14.33;13.13;;;;;;;8.98;84.52;92425.59;5109432;28;20180;-70
2023/04/20 01:31:05;;;;;;;15.17;13.97;;;;;;;9.10;84.14;92425.25;5111686;28;20257;-68
2023/04/20 01:33:31;;;;;;;15.33;13.83;;;;;;;9.04;84.65;92427.09;5110501;28;20200;-69
2023/04/20 01:35:56;;;;;;;15.37;13.90;;;;;;;9.04;84.70;92434.16;5109704;28;20230;-69
2023/04/20 01:38:22;;;;;;;14.97;13.77;;;;;;;8.98;85.30;92415.19;5110428;28;20183;-69
2023/04/20 01:40:48;;;;;;;14.80;13.80;;;;;;;8.97;85.77;92431.06;5111567;28;20237;-70
2023/04/20 01:43:15;;;;;;;15.40;14.23;;;;;;;9.02;85.34;92426.63;5109949;28;20192;-69
2023/04/20 01:45:40;;;;;;;15.67;14.13;;;;;;;8.92;85.90;92425.94;5110168;28;20253;-69
2023/04/20 01:48:06;;;;;;;15.47;14.17;;;;;;;8.90;86.22;92423.56;5110867;28;20196;-69
2023/04/20 01:50:31;;;;;;;15.70;14.13;;;;;;;8.79;86.34;92405.72;5110169;28;20287;-69
2023/04/20 01:52:56;;;;;;;14.13;12.97;;;;;;;8.95;85.54;92420.19;5112534;28;20289;-69
2023/04/20 01:55:22;;;;;;;15.77;14.47;;;;;;;8.87;84.62;92400.69;5110014;28;20227;-69
2023/04/20 01:57:47;;;;;;;15.93;14.73;;;;;;;8.99;84.21;92415.97;5110023;28;20203;-68
2023/04/20 02:00:13;;;;;;;15.13;13.97;;;;;;;9.09;84.23;92410.69;5110650;28;20283;-69
2023/04/20 02:02:39;;;;;;;15.80;14.60;;;;;;;9.16;83.82;92403.31;5110233;28;20248;-69
2023/04/20 02:05:05;;;;;;;15.27;14.07;;;;;;;9.10;84.03;92386.19;5108992;28;20227;-69
2023/04/20 02:07:30;;;;;;;14.87;13.70;;;;;;;9.13;83.32;92388.25;5109362;28;20223;-69
2023/04/20 02:09:56;;;;;;;15.07;13.87;;;;;;;9.28;82.74;92401.91;5109447;28;20304;-69
2023/04/20 02:12:21;;;;;;;14.70;13.53;;;;;;;9.40;83.01;92406.75;5110846;28;20196;-69
2023/04/20 02:14:46;;;;;;;16.07;14.57;;;;;;;9.30;84.22;92409.44;5109625;28;20294;-69
2023/04/20 02:17:12;;;;;;;13.97;12.83;;;;;;;8.99;85.80;92395.91;5109530;28;20188;-69
2023/04/20 02:19:38;;;;;;;15.43;14.13;;;;;;;9.16;86.48;92413.72;5109376;28;20210;-69
2023/04/20 02:22:03;;;;;;;14.90;13.70;;;;;;;9.11;85.23;92405.97;5109532;28;20192;-69
2023/04/20 02:24:29;;;;;;;15.63;14.20;;;;;;;9.07;86.28;92407.56;5109774;28;20274;-69
2023/04/20 02:26:54;;;;;;;16.17;14.87;;;;;;;9.01;86.71;92411.28;5109650;28;20196;-69
2023/04/20 02:29:20;;;;;;;16.37;15.00;;;;;;;9.03;86.47;92409.16;5110642;28;20288;-69
2023/04/20 02:31:45;;;;;;;15.83;14.33;;;;;;;9.07;85.87;92412.78;5108679;28;20243;-69
2023/04/20 02:34:11;;;;;;;15.83;14.53;;;;;;;8.88;85.54;92380.66;5109447;28;20205;-69
2023/04/20 02:36:36;;;;;;;16.50;14.97;;;;;;;9.14;84.54;92400.19;5108688;28;20249;-69
2023/04/20 02:39:02;;;;;;;16.20;14.83;;;;;;;9.20;85.19;92412.13;5109403;28;20195;-68
2023/04/20 02:41:27;;;;;;;16.00;14.60;;;;;;;9.27;84.59;92412.59;5107876;28;20220;-70
2023/04/20 02:43:53;;;;;;;15.00;13.80;;;;;;;9.12;85.20;92395.25;5107624;28;20206;-69
2023/04/20 02:46:19;;;;;;;15.17;13.87;;;;;;;9.31;85.25;92416.97;5109033;28;20228;-69
2023/04/20 02:48:44;;;;;;;14.37;13.37;;;;;;;9.36;84.32;92410.94;5110194;28;20180;-69
2023/04/20 02:51:10;;;;;;;15.57;14.27;;;;;;;9.02;84.89;92394.59;5108650;28;20246;-70
2023/04/20 02:53:35;;;;;;;14.93;13.77;;;;;;;9.10;84.18;92410.41;5109246;28;20245;-69
2023/04/20 02:56:01;;;;;;;15.20;13.90;;;;;;;9.05;85.33;92409.66;5108877;28;20218;-69
2023/04/20 02:58:26;;;;;;;16.23;14.80;;;;;;;9.21;84.04;92416.31;5109834;28;21160;-68
2023/04/20 03:00:57;;;;;;;16.40;15.07;;;;;;;9.20;83.12;92412.13;5109812;28;20716;-70
2023/04/20 03:03:22;;;;;;;15.77;14.57;;;;;;;8.80;83.58;92392.44;5107715;28;20216;-69
2023/04/20 03:05:48;;;;;;;15.07;13.87;;;;;;;9.04;84.11;92414.09;5109555;28;20235;-70
2023/04/20 03:08:13;;;;;;;14.63;13.57;;;;;;;8.96;83.91;92395.69;5111401;28;20189;-70
2023/04/20 03:10:39;;;;;;;15.33;14.07;;;;;;;9.04;84.15;92413.31;5108691;28;20253;-70
2023/04/20 03:13:04;;;;;;;14.93;13.47;;;;;;;8.84;84.20;92409.03;5109858;28;20184;-70
2023/04/20 03:15:29;;;;;;;15.83;14.43;;;;;;;8.91;84.04;92414.72;5109390;28;21209;-70
2023/04/20 03:17:55;;;;;;;16.60;15.30;;;;;;;8.84;84.25;92392.66;5114781;28;20194;-69
2023/04/20 03:20:20;;;;;;;16.60;15.00;;;;;;;8.94;84.02;92402.97;5112055;28;20235;-70
2023/04/20 03:22:46;;;;;;;15.47;14.27;;;;;;;8.95;83.75;92400.09;5113123;28;20258;-70
2023/04/20 03:25:11;;;;;;;15.77;14.37;;;;;;;8.94;83.70;92408.97;5112003;28;20226;-70
2023/04/20 03:27:36;;;;;;;16.93;15.53;;;;;;;8.93;83.69;92411.84;5112162;28;20259;-71
2023/04/20 03:30:02;;;;;;;16.00;14.73;;;;;;;9.04;83.43;92413.31;5111948;28;20302;-69
2023/04/20 03:32:27;;;;;;;16.63;15.43;;;;;;;9.16;79.73;92405.91;5112444;28;20901;-70
2023/04/20 03:34:53;;;;;;;15.60;14.30;;;;;;;9.18;79.81;92414.25;5112661;28;20227;-70
2023/04/20 03:37:18;;;;;;;15.80;14.70;;;;;;;9.19;79.27;92405.38;5113702;28;20188;-69
2023/04/20 03:39:43;;;;;;;15.27;13.97;;;;;;;9.18;78.36;92404.59;5112261;28;20220;-70
2023/04/20 03:42:09;;;;;;;15.23;13.90;;;;;;;9.12;78.82;92416.09;5112399;28;20191;-69
2023/04/20 03:44:34;;;;;;;14.83;13.73;;;;;;;8.98;78.89;92388.38;5108525;28;20219;-68
2023/04/20 03:47:00;;;;;;;14.60;13.40;;;;;;;9.11;79.98;92417.16;5110625;28;20259;-68
2023/04/20 03:49:25;;;;;;;14.47;13.13;;;;;;;9.21;79.22;92413.69;5112439;28;20202;-70
2023/04/20 03:51:50;;;;;;;16.73;15.30;;;;;;;9.21;83.91;92401.44;5112114;28;20180;-69
2023/04/20 03:54:16;;;;;;;15.43;14.13;;;;;;;9.34;81.59;92402.63;5111597;28;20282;-68
2023/04/20 03:56:43;;;;;;;15.70;14.40;;;;;;;9.60;79.57;92419.56;5111725;28;20220;-70
2023/04/20 03:59:09;;;;;;;16.20;14.83;;;;;;;9.37;78.84;92371.59;5112190;28;20667;-68
2023/04/20 04:01:37;;;;;;;16.47;14.97;;;;;;;9.50;79.14;92420.44;5112081;28;20301;-70
2023/04/20 04:04:02;;;;;;;16.83;15.43;;;;;;;9.02;80.36;92399.78;5112786;28;20233;-71
2023/04/20 04:06:28;;;;;;;16.87;15.47;;;;;;;9.23;80.16;92407.16;5112253;28;20232;-69
2023/04/20 04:08:53;;;;;;;16.60;15.00;;;;;;;9.29;82.01;92418.31;5112929;28;20222;-70
2023/04/20 04:11:18;;;;;;;18.00;16.40;;;;;;;9.41;81.41;92421.31;5111637;28;20222;-69
2023/04/20 04:13:44;;;;;;;17.63;16.03;;;;;;;9.19;82.96;92419.19;5112234;28;20195;-70
2023/04/20 04:16:09;;;;;;;19.97;16.27;;;;;;;9.20;82.36;92425.94;5114190;28;20236;-66
2023/04/20 04:18:35;;;;;;;18.83;16.73;;;;;;;9.31;82.64;92426.59;5110235;28;20185;-67
2023/04/20 04:21:00;;;;;;;19.30;17.30;;;;;;;8.94;82.74;92402.97;5112601;28;20208;-66
2023/04/20 04:23:25;;;;;;;19.90;18.07;;;;;;;9.13;84.36;92435.13;5109529;28;20208;-70
2023/04/20 04:25:51;;;;;;;18.03;16.33;;;;;;;9.18;83.71;92422.06;5108393;28;20228;-67
2023/04/20 04:28:16;;;;;;;18.73;16.93;;;;;;;9.19;82.88;92427.00;5110027;28;20295;-68
2023/04/20 04:30:42;;;;;;;20.40;18.40;;;;;;;9.26;82.66;92426.69;5109916;28;20217;-68
2023/04/20 04:33:09;;;;;;;23.60;17.17;;;;;;;9.28;82.64;92432.38;5109015;28;20187;-68
2023/04/20 04:35:34;;;;;;;19.47;17.67;;;;;;;9.27;83.03;92438.63;5108043;28;20249;-68
2023/04/20 04:38:00;;;;;;;18.30;16.57;;;;;;;9.29;83.17;92431.34;5110006;28;20180;-66
2023/04/20 04:40:25;;;;;;;20.83;18.80;;;;;;;9.30;82.96;92423.25;5107545;28;20346;-67
2023/04/20 04:42:51;;;;;;;20.30;17.90;;;;;;;9.17;83.85;92430.91;5109778;28;20198;-67
2023/04/20 04:45:17;;;;;;;18.50;16.80;;;;;;;9.19;83.62;92424.38;5108438;28;20295;-67
2023/04/20 04:47:42;;;;;;;21.60;18.40;;;;;;;9.19;83.98;92442.63;5108311;28;20194;-66
2023/04/20 04:50:09;;;;;;;19.83;17.83;;;;;;;9.31;83.74;92447.44;5109300;28;20224;-66
2023/04/20 04:52:35;;;;;;;20.33;18.33;;;;;;;9.24;84.01;92444.41;5109550;28;20198;-65
2023/04/20 04:55:02;;;;;;;20.80;16.80;;;;;;;9.19;84.28;92447.03;5109942;27;20228;-66
2023/04/20 04:57:28;;;;;;;20.03;16.67;;;;;;;9.32;84.00;92452.38;5110017;28;20277;-66
2023/04/20 04:59:53;;;;;;;20.33;18.13;;;;;;;9.06;84.14;92421.63;5110661;28;20228;-66
2023/04/20 05:02:19;;;;;;;22.97;17.23;;;;;;;9.09;84.40;92452.34;5108519;28;20227;-66
2023/04/20 05:04:45;;;;;;;22.27;18.03;;;;;;;9.21;84.00;92455.38;5107644;28;20227;-66
2023/04/20 05:07:10;;;;;;;18.70;16.67;;;;;;;9.23;84.40;92463.69;5109888;28;20188;-66
2023/04/20 05:09:36;;;;;;;20.30;17.90;;;;;;;9.18;84.39;92456.66;5109153;28;20256;-66
2023/04/20 05:12:02;;;;;;;19.00;16.97;;;;;;;9.13;85.06;92454.13;5110345;28;20593;-66
2023/04/20 05:14:30;;;;;;;26.17;19.43;;;;;;;9.42;85.31;92454.13;5109511;28;20212;-66
2023/04/20 05:16:57;;;;;;;20.50;17.47;;;;;;;9.14;84.49;92444.47;5109697;28;20191;-64
2023/04/20 05:19:22;;;;;;;19.67;17.77;;;;;;;9.10;84.53;92448.69;5108621;28;20226;-67
2023/04/20 05:21:47;;;;;;;21.13;16.93;;;;;;;9.39;84.25;92457.28;5111450;28;20208;-66
2023/04/20 05:24:13;;;;;;;20.67;18.03;;;;;;;9.33;84.46;92455.78;5108851;28;20234;-66
2023/04/20 05:26:38;;;;;;;19.33;17.43;;;;;;;9.23;84.58;92448.81;5108611;28;20231;-65
2023/04/20 05:29:04;;;;;;;20.00;17.90;;;;;;;9.26;84.89;92460.53;5108356;28;20172;-65
2023/04/20 05:31:32;;;;;;;19.93;18.00;;;;;;;9.26;85.10;92463.16;5107418;28;20223;-66
2023/04/20 05:33:58;;;;;;;20.50;18.47;;;;;;;9.32;84.91;92467.25;5110047;28;20202;-65
2023/04/20 05:36:23;;;;;;;20.03;17.93;;;;;;;9.41;84.64;92457.78;5108436;28;20215;-65
2023/04/20 05:38:49;;;;;;;22.30;18.43;;;;;;;9.46;84.00;92468.94;5109681;28;20205;-66
2023/04/20 05:41:14;;;;;;;21.03;18.83;;;;;;;9.22;85.45;92457.69;5107731;28;20223;-68
2023/04/20 05:43:39;;;;;;;19.97;17.97;;;;;;;9.46;87.56;92462.97;5108637;28;20193;-68
2023/04/20 05:46:05;;;;;;;24.27;18.73;;;;;;;9.35;85.45;92457.03;5107664;28;20301;-68
2023/04/20 05:48:30;;;;;;;20.43;18.33;;;;;;;9.38;85.24;92471.38;5108563;28;20210;-68
2023/04/20 05:50:56;;;;;;;19.67;17.57;;;;;;;9.49;85.98;92468.38;5106333;28;20239;-69
2023/04/20 05:53:21;;;;;;;20.40;18.20;;;;;;;9.12;87.10;92444.75;5108322;28;21202;-67
2023/04/20 05:55:46;;;;;;;20.30;17.60;;;;;;;9.41;87.96;92466.41;5108673;28;20969;-68
2023/04/20 05:58:12;;;;;;;19.90;17.77;;;;;;;9.42;87.99;92467.94;5107458;28;20196;-68
2023/04/20 06:00:37;;;;;;;25.37;20.90;;;;;;;9.46;88.49;92453.28;5106887;28;20220;-69
2023/04/20 06:03:03;;;;;;;19.23;17.43;;;;;;;9.65;89.09;92454.16;5108423;28;20220;-68
2023/04/20 06:05:28;;;;;;;20.47;18.57;;;;;;;9.80;85.54;92467.03;5106761;28;20238;-69
2023/04/20 06:07:54;;;;;;;21.47;19.13;;;;;;;9.87;87.16;92452.91;5107492;28;20268;-66
2023/04/20 06:10:19;;;;;;;19.13;17.13;;;;;;;9.45;86.26;92461.38;5108817;28;20246;-69
2023/04/20 06:12:45;;;;;;;21.37;18.80;;;;;;;9.39;86.98;92465.09;5108064;28;20191;-68
2023/04/20 06:15:10;;;;;;;19.43;17.53;;;;;;;9.39;86.21;92463.28;5108405;28;20284;-68
2023/04/20 06:17:39;;;;;;;19.97;17.03;;;;;;;9.24;86.05;92467.84;5108455;28;20195;-68
2023/04/20 06:20:07;;;;;;;19.67;17.67;;;;;;;9.38;87.40;92473.97;5107691;28;20946;-68
2023/04/20 06:22:33;;;;;;;20.33;18.33;;;;;;;9.43;88.69;92471.31;5108955;28;20218;-69
2023/04/20 06:24:59;;;;;;;19.30;17.27;;;;;;;9.26;88.02;92456.09;5107290;28;20223;-68
2023/04/20 06:27:25;;;;;;;20.07;18.10;;;;;;;9.43;88.86;92464.28;5107863;28;20239;-68
2023/04/20 06:29:50;;;;;;;19.67;17.83;;;;;;;9.33;87.70;92468.78;5108149;28;20232;-68
2023/04/20 06:32:16;;;;;;;20.27;18.23;;;;;;;9.67;87.00;92480.72;5108174;28;20230;-67
2023/04/20 06:34:42;;;;;;;19.97;18.10;;;;;;;9.27;87.25;92475.91;5107307;28;20243;-68
2023/04/20 06:37:08;;;;;;;20.13;17.63;;;;;;;9.53;86.26;92473.81;5107129;28;20222;-68
2023/04/20 06:39:34;;;;;;;20.60;18.60;;;;;;;9.71;84.95;92481.72;5107868;28;20254;-71
2023/04/20 06:42:01;;;;;;;20.53;18.40;;;;;;;9.48;86.00;92473.88;5106810;28;20187;-70
2023/04/20 06:44:26;;;;;;;19.60;17.70;;;;;;;9.53;85.38;92485.03;5107582;28;20219;-70
2023/04/20 06:46:51;;;;;;;20.43;18.43;;;;;;;9.32;86.19;92472.47;5108330;28;20189;-70
2023/04/20 06:49:17;;;;;;;19.70;17.90;;;;;;;9.37;85.31;92470.56;5109591;28;20214;-71
2023/04/20 06:51:42;;;;;;;20.33;18.23;;;;;;;9.59;86.18;92485.75;5111627;28;20273;-69
2023/04/20 06:54:08;;;;;;;20.23;18.23;;;;;;;9.40;85.28;92490.13;5112107;28;20286;-70
2023/04/20 06:56:33;;;;;;;20.27;18.37;;;;;;;9.48;85.65;92494.72;5110729;28;22015;-70
2023/04/20 06:58:58;;;;;;;19.60;17.50;;;;;;;9.59;85.11;92490.97;5113830;28;20674;-70
2023/04/20 07:01:24;;;;;;;23.20;18.07;;;;;;;9.33;86.37;92459.16;5109604;28;20235;-70
2023/04/20 07:03:50;;;;;;;19.97;17.87;;;;;;;9.71;84.56;92496.59;5112522;28;20203;-70
2023/04/20 07:06:16;;;;;;;24.07;18.93;;;;;;;9.65;86.39;92510.72;5112743;28;20216;-70
2023/04/20 07:08:41;;;;;;;19.43;17.43;;;;;;;9.37;86.32;92503.69;5112501;28;20219;-69
2023/04/20 07:11:07;;;;;;;18.50;16.90;;;;;;;9.36;86.03;92499.50;5112115;28;20272;-69
2023/04/20 07:13:32;;;;;;;16.80;15.37;;;;;;;9.45;86.37;92508.28;5110491;28;20197;-69
2023/04/20 07:15:58;;;;;;;16.10;14.87;;;;;;;9.57;91.09;92503.50;5112521;28;20232;-70
2023/04/20 07:18:23;;;;;;;17.10;15.63;;;;;;;10.04;86.35;92502.78;5112304;28;20208;-69
2023/04/20 07:20:49;;;;;;;16.80;15.17;;;;;;;9.93;84.42;92504.69;5113015;28;20220;-69
2023/04/20 07:23:14;;;;;;;17.70;15.87;;;;;;;10.33;83.36;92506.91;5112530;28;20282;-70
2023/04/20 07:25:40;;;;;;;17.97;16.43;;;;;;;10.47;81.63;92509.63;5111999;28;20748;-70
2023/04/20 07:28:05;;;;;;;15.93;14.47;;;;;;;10.62;80.53;92501.59;5112487;28;20188;-69
2023/04/20 07:30:31;;;;;;;16.60;15.00;;;;;;;10.54;80.24;92505.59;5110695;28;20232;-70
2023/04/20 07:32:56;;;;;;;16.90;15.17;;;;;;;10.66;79.12;92502.59;5112813;28;20186;-69
2023/04/20 07:35:22;;;;;;;18.40;16.67;;;;;;;10.45;80.65;92502.06;5112075;28;20228;-70
2023/04/20 07:37:47;;;;;;;16.93;15.43;;;;;;;10.75;79.32;92506.91;5112151;28;20193;-71
2023/04/20 07:40:13;;;;;;;16.73;15.30;;;;;;;11.23;77.62;92497.88;5111967;28;20280;-69
2023/04/20 07:42:39;;;;;;;16.03;14.60;;;;;;;11.08;75.84;92494.69;5112213;28;20196;-69
2023/04/20 07:45:06;;;;;;;15.80;14.40;;;;;;;11.28;75.99;92497.75;5109843;28;20235;-69
2023/04/20 07:47:34;;;;;;;16.67;14.90;;;;;;;11.75;75.78;92512.47;5112432;28;20202;-69
2023/04/20 07:50:00;;;;;;;16.03;14.67;;;;;;;11.32;74.33;92498.75;5112193;28;20221;-70
2023/04/20 07:52:25;;;;;;;15.17;13.87;;;;;;;11.78;73.36;92506.66;5111104;28;20907;-70
2023/04/20 07:54:56;;;;;;;15.80;14.47;;;;;;;11.84;72.65;92512.59;5112877;28;20232;-70
2023/04/20 07:57:22;;;;;;;16.43;14.93;;;;;;;12.05;72.09;92516.38;5111225;28;20195;-69
2023/04/20 07:59:47;;;;;;;17.73;15.90;;;;;;;11.91;72.52;92502.50;5114539;28;20236;-70
2023/04/20 08:02:13;;;;;;;15.60;14.20;;;;;;;11.80;71.90;92507.16;5109546;28;20227;-69
2023/04/20 08:04:38;;;;;;;17.80;16.20;;;;;;;11.96;71.72;92494.56;5111636;28;20208;-69
2023/04/20 08:07:04;;;;;;;15.17;13.87;;;;;;;11.53;72.60;92514.13;5112528;28;20195;-69
2023/04/20 08:09:29;;;;;;;16.40;14.97;;;;;;;11.20;73.84;92513.31;5111232;28;20221;-69
2023/04/20 08:11:55;;;;;;;16.97;15.43;;;;;;;12.00;72.29;92519.88;5112596;28;20165;-70
2023/04/20 08:14:21;;;;;;;16.17;14.70;;;;;;;11.37;73.14;92508.34;5110847;28;20213;-69
2023/04/20 08:16:46;;;;;;;17.53;15.93;;;;;;;11.69;72.86;92512.84;5111555;28;20207;-70
2023/04/20 08:19:11;;;;;;;15.37;13.97;;;;;;;11.89;71.06;92504.66;5109929;28;20236;-70
2023/04/20 08:21:40;;;;;;;16.77;15.23;;;;;;;11.54;75.65;92503.38;5111731;28;20228;-70
2023/04/20 08:24:06;;;;;;;16.13;14.53;;;;;;;12.12;71.71;92516.78;5112246;28;20206;-69
2023/04/20 08:26:32;;;;;;;17.93;16.30;;;;;;;12.02;73.11;92519.59;5110552;28;20220;-70
2023/04/20 08:28:59;;;;;;;18.23;15.73;;;;;;;12.45;72.27;92515.66;5109799;28;20201;-71
2023/04/20 08:31:24;;;;;;;16.63;14.47;;;;;;;11.79;71.98;92521.28;5109858;28;20224;-71
2023/04/20 08:33:50;;;;;;;16.10;14.60;;;;;;;11.94;71.94;92518.41;5111032;28;20196;-70
2023/04/20 08:36:15;;;;;;;17.13;15.43;;;;;;;12.17;72.59;92521.94;5109910;28;20219;-69
2023/04/20 08:38:41;;;;;;;16.63;15.03;;;;;;;12.32;71.48;92529.50;5112086;28;20239;-70
2023/04/20 08:41:06;;;;;;;16.60;15.07;;;;;;;12.40;70.78;92526.22;5110987;28;20828;-70
2023/04/20 08:43:32;;;;;;;18.63;17.03;;;;;;;12.11;71.41;92528.34;5111345;28;20210;-70
2023/04/20 08:46:01;;;;;;;17.70;16.10;;;;;;;11.68;73.83;92519.13;5109781;28;20232;-70
2023/04/20 08:48:37;;;;;;;17.20;15.40;;;;;;;12.01;73.90;92518.03;5110873;28;20200;-70
2023/04/20 08:51:04;;;;;;;16.43;14.90;;;;;;;11.89;71.89;92518.50;5110483;28;20223;-69
2023/04/20 08:53:30;;;;;;;17.67;15.83;;;;;;;11.71;73.66;92521.16;5111428;28;20201;-70
2023/04/20 08:55:56;;;;;;;17.50;15.73;;;;;;;11.76;74.32;92506.19;5111439;28;20228;-69
2023/04/20 08:58:29;;;;;;;18.37;16.37;;;;;;;11.70;74.27;92527.47;5110687;28;20194;-70
2023/04/20 09:00:54;;;;;;;16.57;14.80;;;;;;;11.61;74.35;92523.94;5109908;28;20228;-70
2023/04/20 09:03:33;;;;;;;17.37;15.87;;;;;;;11.56;74.44;92521.41;5111743;28;20244;-68
2023/04/20 09:05:58;;;;;;;17.57;16.00;;;;;;;11.84;74.31;92518.59;5109891;28;20231;-70
2023/04/20 09:08:39;;;;;;;18.07;15.60;;;;;;;11.75;74.44;92503.84;5112847;28;20192;-68
2023/04/20 09:11:04;;;;;;;17.50;15.80;;;;;;;11.81;73.86;92518.41;5110074;28;20219;-72
2023/04/20 09:13:30;;;;;;;17.50;15.80;;;;;;;11.91;74.17;92526.84;5111611;28;20268;-69
2023/04/20 09:15:55;;;;;;;16.97;15.43;;;;;;;11.50;75.48;92533.78;5109068;28;20221;-70
2023/04/20 09:18:22;;;;;;;16.37;14.87;;;;;;;11.28;77.79;92539.56;5109467;28;20197;-70
2023/04/20 09:20:48;;;;;;;17.93;16.33;;;;;;;11.09;76.96;92535.44;5110148;28;20219;-72
2023/04/20 09:23:15;;;;;;;18.23;16.63;;;;;;;11.35;76.91;92526.94;5111259;28;20592;-72
2023/04/20 09:25:42;;;;;;;17.97;16.13;;;;;;;11.51;75.93;92524.88;5110276;28;20229;-72
2023/04/20 09:28:08;;;;;;;18.20;16.30;;;;;;;11.79;75.11;92525.75;5110476;28;20195;-71
2023/04/20 09:30:44;;;;;;;17.93;16.33;;;;;;;11.96;72.84;92525.97;5108680;28;20224;-71
2023/04/20 09:33:11;;;;;;;17.37;15.60;;;;;;;12.57;71.68;92521.94;5109838;28;20202;-71
2023/04/20 09:35:41;;;;;;;17.67;15.90;;;;;;;12.14;70.99;92522.53;5111111;28;20222;-70
2023/04/20 09:38:11;;;;;;;17.27;15.47;;;;;;;12.07;71.34;92511.66;5109114;28;20191;-70
2023/04/20 09:40:36;;;;;;;16.33;14.60;;;;;;;12.58;70.39;92513.00;5110858;28;20217;-70
2023/04/20 09:43:18;;;;;;;16.73;15.33;;;;;;;12.51;70.23;92522.34;5110249;28;20184;-70
2023/04/20 09:45:44;;;;;;;17.23;15.73;;;;;;;12.11;70.76;92510.03;5109258;28;20250;-70
2023/04/20 09:48:10;;;;;;;16.13;14.63;;;;;;;12.58;69.95;92504.38;5111491;28;20192;-71
2023/04/20 09:50:37;;;;;;;16.53;15.10;;;;;;;12.67;71.46;92518.31;5110362;28;20230;-71
2023/04/20 09:53:03;;;;;;;18.87;17.17;;;;;;;13.33;68.77;92508.03;5110081;28;20210;-72
2023/04/20 09:55:32;;;;;;;17.97;16.07;;;;;;;13.72;66.95;92510.78;5110646;28;20302;-71
2023/04/20 09:58:00;;;;;;;16.20;14.87;;;;;;;13.66;65.22;92464.75;5109351;28;20198;-72
2023/04/20 10:00:26;;;;;;;15.27;14.00;;;;;;;13.45;67.03;92486.53;5108140;28;20258;-70
2023/04/20 10:02:51;;;;;;;16.10;14.53;;;;;;;13.86;65.55;92506.22;5109318;28;20224;-71
2023/04/20 10:05:17;;;;;;;16.37;14.87;;;;;;;14.21;64.63;92510.56;5109962;28;20227;-71
2023/04/20 10:07:43;;;;;;;16.10;14.70;;;;;;;13.83;65.23;92506.81;5108760;28;20196;-71
2023/04/20 10:10:14;;;;;;;15.67;14.43;;;;;;;13.53;65.27;92502.31;5109704;28;20235;-70
2023/04/20 10:12:46;;;;;;;16.20;14.73;;;;;;;14.19;63.82;92504.81;5109512;28;20199;-71
2023/04/20 10:15:12;;;;;;;15.03;13.73;;;;;;;14.27;62.84;92506.00;5109686;28;20314;-71
2023/04/20 10:17:37;;;;;;;15.60;14.20;;;;;;;14.00;63.80;92479.88;5109989;28;20227;-71
2023/04/20 10:20:03;;;;;;;16.37;14.77;;;;;;;14.29;61.82;92496.72;5107657;28;20249;-70
2023/04/20 10:22:34;;;;;;;15.60;14.30;;;;;;;14.28;62.44;92497.03;5110148;28;20217;-71
2023/04/20 10:25:01;;;;;;;15.43;14.13;;;;;;;14.23;63.14;92497.91;5110180;28;20239;-71
2023/04/20 10:27:27;;;;;;;15.10;13.73;;;;;;;14.23;62.22;92503.16;5116294;28;20196;-70
2023/04/20 10:29:52;;;;;;;15.03;13.67;;;;;;;14.31;63.06;92499.06;5116099;27;20309;-71
2023/04/20 10:32:26;;;;;;;15.23;13.90;;;;;;;14.43;63.14;92494.78;5116242;28;20191;-70
2023/04/20 10:35:06;;;;;;;17.00;15.30;;;;;;;14.44;60.99;92483.19;5115355;28;20230;-69
2023/04/20 10:37:32;;;;;;;16.00;13.87;;;;;;;13.81;62.91;92480.09;5115489;28;20218;-69
2023/04/20 10:39:58;;;;;;;15.80;14.33;;;;;;;14.15;64.46;92482.09;5115762;28;20241;-68
2023/04/20 10:42:25;;;;;;;14.00;12.80;;;;;;;14.10;62.90;92485.66;5116712;28;20199;-68
2023/04/20 10:44:51;;;;;;;14.33;13.10;;;;;;;14.07;64.38;92483.63;5115126;28;20228;-68
2023/04/20 10:47:25;;;;;;;14.33;13.13;;;;;;;14.05;63.35;92475.31;5115984;28;20187;-68
2023/04/20 10:49:51;;;;;;;15.03;13.83;;;;;;;14.23;61.75;92484.78;5115806;28;20242;-68
2023/04/20 10:52:16;;;;;;;16.03;14.83;;;;;;;14.40;65.51;92484.09;5115871;28;20187;-68
2023/04/20 10:54:42;;;;;;;15.17;13.93;;;;;;;14.57;61.68;92480.75;5115971;28;20227;-68
2023/04/20 10:57:07;;;;;;;14.83;13.60;;;;;;;14.97;61.37;92471.72;5114696;28;20256;-67
2023/04/20 10:59:36;;;;;;;14.30;13.00;;;;;;;14.56;61.29;92487.06;5117781;28;20981;-68
2023/04/20 11:02:06;;;;;;;13.43;12.40;;;;;;;14.24;61.46;92486.34;5115356;28;21429;-68
2023/04/20 11:04:33;;;;;;;15.63;14.33;;;;;;;14.07;62.98;92477.63;5115397;28;20220;-69
2023/04/20 11:07:06;;;;;;;14.63;13.37;;;;;;;14.15;63.33;92475.03;5115152;28;20275;-68
2023/04/20 11:09:33;;;;;;;15.00;13.50;;;;;;;14.03;64.12;92474.03;5114570;28;20225;-68
2023/04/20 11:12:05;;;;;;;15.23;13.83;;;;;;;13.65;65.97;92465.81;5116360;28;20186;-68
2023/04/20 11:14:37;;;;;;;14.10;12.90;;;;;;;14.00;63.05;92467.56;5115319;27;20231;-69
2023/04/20 11:17:04;;;;;;;14.40;13.37;;;;;;;14.22;62.22;92472.75;5115608;28;20212;-68